Time;durP1;ratioP1;P1;durP2;ratioP2;P2;SDS_P1;SDS_P2;PMS_P1;PMS_P2;Temp;Humidity;BMP_temperature;BMP_pressure;BME280_temperature;BME280_humidity;BME280_pressure;Samples;Min_cycle;Max_cycle;Signal;HPM_P1;HPM_P2
2023/07/06 01:02:39;;;;;;;13.18;9.10;;;;;;;;;;2531447;23;20021;-71
2023/07/06 01:04:01;;;;;;;19.52;9.45;;;;;;;;;;2530278;23;20020;-73
2023/07/06 01:05:24;;;;;;;16.98;9.68;;;;;;;;;;2517674;23;20018;-72
2023/07/06 01:06:47;;;;;;;19.42;10.88;;;;;;;;;;2512420;23;20022;-71
2023/07/06 01:08:11;;;;;;;14.23;8.75;;;;;;;;;;2526988;23;20037;-71
2023/07/06 01:09:32;;;;;;;16.60;8.95;;;;;;;;;;2518019;23;20015;-71
2023/07/06 01:10:53;;;;;;;13.55;8.90;;;;;;;;;;2528202;23;20347;-71
2023/07/06 01:12:15;;;;;;;20.25;10.07;;;;;;;;;;2529832;23;20117;-71
2023/07/06 01:13:36;;;;;;;15.32;8.18;;;;;;;;;;2530540;23;20013;-71
2023/07/06 01:14:57;;;;;;;13.63;8.93;;;;;;;;;;2529979;23;20006;-71
2023/07/06 01:16:42;;;;;;;13.85;8.68;;;;;;;;;;2517799;23;20057;-72
2023/07/06 01:18:10;;;;;;;20.45;10.55;;;;;;;;;;2517230;23;20007;-72
2023/07/06 01:19:48;;;;;;;16.35;8.88;;;;;;;;;;2515969;23;20011;-72
2023/07/06 01:21:09;;;;;;;14.38;8.80;;;;;;;;;;2529249;23;20009;-71
2023/07/06 01:22:49;;;;;;;22.92;10.57;;;;;;;;;;2517077;23;20081;-72
2023/07/06 01:24:10;;;;;;;21.27;10.23;;;;;;;;;;2515610;23;20025;-71
2023/07/06 01:25:50;;;;;;;14.88;9.27;;;;;;;;;;2525164;23;20396;-72
2023/07/06 01:27:25;;;;;;;20.17;9.13;;;;;;;;;;2515868;23;20026;-71
2023/07/06 01:29:00;;;;;;;15.50;9.20;;;;;;;;;;2528769;23;20026;-71
2023/07/06 01:30:25;;;;;;;17.15;9.20;;;;;;;;;;2530574;23;20033;-71
2023/07/06 01:31:46;;;;;;;21.92;10.07;;;;;;;;;;2517966;23;20393;-71
2023/07/06 01:33:10;;;;;;;21.45;9.98;;;;;;;;;;2527410;23;20010;-72
2023/07/06 01:34:31;;;;;;;14.18;8.63;;;;;;;;;;2528448;23;20344;-72
2023/07/06 01:35:58;;;;;;;16.05;9.07;;;;;;;;;;2530226;23;20011;-72
2023/07/06 01:37:29;;;;;;;17.63;9.90;;;;;;;;;;2528950;23;20343;-72
2023/07/06 01:39:09;;;;;;;18.80;9.57;;;;;;;;;;2529909;23;20347;-72
2023/07/06 01:40:30;;;;;;;14.77;8.13;;;;;;;;;;2529332;23;20375;-73
2023/07/06 01:42:14;;;;;;;21.10;9.18;;;;;;;;;;2528648;23;20017;-72
2023/07/06 01:43:36;;;;;;;20.70;9.43;;;;;;;;;;2529779;23;20065;-72
2023/07/06 01:45:02;;;;;;;16.95;8.63;;;;;;;;;;2529329;23;20454;-73
2023/07/06 01:46:23;;;;;;;13.32;8.82;;;;;;;;;;2514760;23;20022;-72
2023/07/06 01:47:49;;;;;;;22.05;9.38;;;;;;;;;;2512430;23;20033;-73
2023/07/06 01:49:10;;;;;;;21.25;9.52;;;;;;;;;;2517314;23;20018;-71
2023/07/06 01:50:38;;;;;;;20.88;9.15;;;;;;;;;;2524653;23;20067;-71
2023/07/06 01:52:07;;;;;;;19.02;9.32;;;;;;;;;;2528759;23;20014;-72
2023/07/06 01:53:33;;;;;;;17.33;8.90;;;;;;;;;;2528997;23;20029;-72
2023/07/06 01:54:58;;;;;;;14.93;8.15;;;;;;;;;;2529534;23;20089;-73
2023/07/06 01:56:22;;;;;;;29.50;12.02;;;;;;;;;;2515465;23;20010;-73
2023/07/06 01:57:59;;;;;;;18.40;9.10;;;;;;;;;;2515015;23;20138;-72
2023/07/06 01:59:22;;;;;;;21.10;9.95;;;;;;;;;;2528282;23;20053;-73
2023/07/06 02:00:47;;;;;;;19.25;9.93;;;;;;;;;;2516005;23;20050;-73
2023/07/06 02:02:11;;;;;;;18.92;9.60;;;;;;;;;;2529645;23;20017;-71
2023/07/06 02:03:32;;;;;;;16.52;9.25;;;;;;;;;;2539934;23;20013;-71
2023/07/06 02:04:55;;;;;;;14.37;7.80;;;;;;;;;;2539799;23;20544;-73
2023/07/06 02:06:17;;;;;;;26.52;9.80;;;;;;;;;;2526486;23;20013;-74
2023/07/06 02:07:40;;;;;;;23.70;10.20;;;;;;;;;;2538212;23;20414;-73
2023/07/06 02:09:02;;;;;;;19.40;9.30;;;;;;;;;;2540767;23;20014;-71
2023/07/06 02:10:23;;;;;;;22.95;10.85;;;;;;;;;;2541583;23;20372;-70
2023/07/06 02:11:45;;;;;;;20.25;9.05;;;;;;;;;;2540307;23;20018;-73
2023/07/06 02:13:06;;;;;;;19.75;9.07;;;;;;;;;;2529322;23;20018;-73
2023/07/06 02:14:31;;;;;;;18.15;9.13;;;;;;;;;;2537066;23;20463;-71
2023/07/06 02:15:52;;;;;;;16.27;8.65;;;;;;;;;;2541030;23;20033;-71
2023/07/06 02:17:13;;;;;;;18.42;9.85;;;;;;;;;;2540858;23;20477;-72
2023/07/06 02:18:33;;;;;;;23.33;10.48;;;;;;;;;;2529442;23;20049;-71
2023/07/06 02:19:54;;;;;;;20.00;10.40;;;;;;;;;;2524391;23;20010;-77
2023/07/06 02:21:15;;;;;;;22.02;10.38;;;;;;;;;;2525567;23;20006;-78
2023/07/06 02:22:36;;;;;;;14.75;8.82;;;;;;;;;;2526510;23;20399;-78
2023/07/06 02:23:57;;;;;;;21.20;10.23;;;;;;;;;;2537679;23;20017;-76
2023/07/06 02:25:20;;;;;;;20.50;9.50;;;;;;;;;;2531483;23;20025;-79
2023/07/06 02:26:41;;;;;;;14.73;8.20;;;;;;;;;;2538039;23;20021;-78
2023/07/06 02:28:03;;;;;;;12.23;8.68;;;;;;;;;;2531530;23;20455;-78
2023/07/06 02:29:23;;;;;;;22.50;10.18;;;;;;;;;;2536453;23;20014;-78
2023/07/06 02:30:44;;;;;;;14.90;9.63;;;;;;;;;;2530738;23;20105;-78
2023/07/06 02:32:06;;;;;;;19.98;9.27;;;;;;;;;;2537096;23;20371;-79
2023/07/06 02:33:28;;;;;;;16.45;9.05;;;;;;;;;;2542179;23;20020;-79
2023/07/06 02:34:49;;;;;;;;;;;;;;;;;;2542685;23;20380;-79
2023/07/06 02:36:11;;;;;;;23.38;10.23;;;;;;;;;;2541847;23;19901;-78
2023/07/06 02:37:32;;;;;;;19.48;9.68;;;;;;;;;;2529289;23;20010;-79
2023/07/06 02:38:53;;;;;;;16.10;9.05;;;;;;;;;;2538953;23;20009;-79
2023/07/06 02:40:14;;;;;;;19.10;9.65;;;;;;;;;;2542400;23;20009;-78
2023/07/06 02:41:35;;;;;;;14.57;8.20;;;;;;;;;;2530415;23;20443;-79
2023/07/06 02:42:56;;;;;;;19.25;8.77;;;;;;;;;;2537987;23;20009;-79
2023/07/06 02:44:19;;;;;;;19.90;9.13;;;;;;;;;;2528306;23;20025;-73
2023/07/06 02:45:40;;;;;;;24.83;9.70;;;;;;;;;;2538606;23;20093;-73
2023/07/06 02:47:01;;;;;;;18.70;9.43;;;;;;;;;;2541026;23;20027;-73
2023/07/06 02:48:24;;;;;;;22.98;10.75;;;;;;;;;;2530691;23;20021;-73
2023/07/06 02:49:45;;;;;;;18.67;10.27;;;;;;;;;;2538774;23;20403;-73
2023/07/06 02:51:06;;;;;;;18.27;9.32;;;;;;;;;;2541772;23;20010;-73
2023/07/06 02:52:27;;;;;;;10.38;7.72;;;;;;;;;;2528703;23;20565;-72
2023/07/06 02:53:48;;;;;;;18.23;9.35;;;;;;;;;;2526432;23;20096;-73
2023/07/06 02:55:09;;;;;;;23.73;10.60;;;;;;;;;;2538661;23;20016;-73
2023/07/06 02:56:30;;;;;;;18.13;9.30;;;;;;;;;;2540929;23;20087;-72
2023/07/06 02:57:51;;;;;;;18.80;9.00;;;;;;;;;;2541270;23;20036;-73
2023/07/06 02:59:13;;;;;;;22.48;9.65;;;;;;;;;;2541495;23;20009;-72
2023/07/06 03:00:34;;;;;;;25.48;10.48;;;;;;;;;;2542420;23;20013;-72
2023/07/06 03:01:55;;;;;;;24.65;11.57;;;;;;;;;;2540271;23;20017;-73
2023/07/06 03:03:16;;;;;;;29.42;10.75;;;;;;;;;;2543446;23;20009;-73
2023/07/06 03:04:37;;;;;;;20.35;9.75;;;;;;;;;;2541654;23;20018;-72
2023/07/06 03:06:01;;;;;;;27.17;11.55;;;;;;;;;;2542141;23;20016;-72
2023/07/06 03:07:23;;;;;;;17.35;9.15;;;;;;;;;;2540088;23;20021;-73
2023/07/06 03:08:44;;;;;;;13.10;8.50;;;;;;;;;;2542095;23;20010;-73
2023/07/06 03:10:05;;;;;;;18.05;9.02;;;;;;;;;;2528039;23;20010;-73
2023/07/06 03:11:26;;;;;;;26.75;10.00;;;;;;;;;;2538120;23;20032;-70
2023/07/06 03:12:48;;;;;;;24.83;10.45;;;;;;;;;;2541518;23;20285;-70
2023/07/06 03:14:10;;;;;;;23.15;10.40;;;;;;;;;;2540792;23;20005;-73
2023/07/06 03:15:31;;;;;;;19.23;9.57;;;;;;;;;;2544634;23;20009;-73
2023/07/06 03:16:53;;;;;;;22.95;10.32;;;;;;;;;;2539920;23;20009;-73
2023/07/06 03:18:14;;;;;;;16.33;8.35;;;;;;;;;;2528932;23;20006;-73
2023/07/06 03:19:38;;;;;;;22.48;10.77;;;;;;;;;;2538224;23;20096;-72
2023/07/06 03:21:00;;;;;;;25.50;10.82;;;;;;;;;;2541195;23;20009;-72
2023/07/06 03:22:22;;;;;;;28.05;10.35;;;;;;;;;;2527438;23;20426;-73
2023/07/06 03:23:43;;;;;;;11.90;7.85;;;;;;;;;;2541128;23;20009;-73
2023/07/06 03:25:05;;;;;;;20.65;9.82;;;;;;;;;;2542383;23;20347;-72
2023/07/06 03:26:26;;;;;;;19.33;8.75;;;;;;;;;;2542597;23;20411;-73
2023/07/06 03:27:47;;;;;;;15.38;8.30;;;;;;;;;;2529069;23;20022;-72
2023/07/06 03:29:09;;;;;;;14.02;7.75;;;;;;;;;;2538217;23;20101;-73
2023/07/06 03:30:29;;;;;;;18.40;8.52;;;;;;;;;;2529906;23;20408;-73
2023/07/06 03:31:50;;;;;;;17.77;10.00;;;;;;;;;;2538889;23;20395;-72
2023/07/06 03:33:11;;;;;;;16.95;8.48;;;;;;;;;;2541372;23;20009;-72
2023/07/06 03:34:33;;;;;;;17.77;8.32;;;;;;;;;;2541278;23;20029;-73
2023/07/06 03:35:54;;;;;;;22.20;10.02;;;;;;;;;;2540933;23;20020;-73
2023/07/06 03:37:18;;;;;;;21.85;9.60;;;;;;;;;;2541868;23;20013;-72
2023/07/06 03:38:39;;;;;;;19.55;8.98;;;;;;;;;;2530373;23;20451;-73
2023/07/06 03:40:00;;;;;;;14.90;8.43;;;;;;;;;;2540100;23;20014;-71
2023/07/06 03:41:21;;;;;;;14.30;7.65;;;;;;;;;;2543252;23;20044;-70
2023/07/06 03:42:43;;;;;;;15.05;8.82;;;;;;;;;;2531511;23;20010;-73
2023/07/06 03:44:04;;;;;;;;;;;;;;;;;;2528353;23;20014;-72
2023/07/06 03:45:26;;;;;;;20.00;9.27;;;;;;;;;;2539871;23;20314;-72
2023/07/06 03:46:47;;;;;;;16.23;8.98;;;;;;;;;;2529035;23;20010;-73
2023/07/06 03:48:08;;;;;;;11.75;7.65;;;;;;;;;;2540488;23;20284;-73
2023/07/06 03:49:34;;;;;;;13.88;8.40;;;;;;;;;;2544096;23;20014;-73
2023/07/06 03:50:59;;;;;;;15.10;8.55;;;;;;;;;;2542817;23;20470;-72
2023/07/06 03:52:22;;;;;;;24.40;8.88;;;;;;;;;;2542905;23;20085;-72
2023/07/06 03:53:46;;;;;;;15.60;7.63;;;;;;;;;;2532978;23;20070;-73
2023/07/06 03:55:12;;;;;;;21.85;8.65;;;;;;;;;;2539995;23;20020;-72
2023/07/06 03:56:33;;;;;;;13.88;8.20;;;;;;;;;;2543316;23;20009;-72
2023/07/06 03:57:54;;;;;;;18.95;9.60;;;;;;;;;;2529117;23;20014;-72
2023/07/06 03:59:15;;;;;;;15.98;8.65;;;;;;;;;;2540412;23;20529;-72
2023/07/06 04:00:36;;;;;;;14.90;8.57;;;;;;;;;;2542469;23;20017;-73
2023/07/06 04:01:57;;;;;;;14.95;7.72;;;;;;;;;;2542493;23;20012;-72
2023/07/06 04:03:18;;;;;;;15.82;9.05;;;;;;;;;;2531557;23;20018;-73
2023/07/06 04:04:41;;;;;;;21.63;9.27;;;;;;;;;;2538477;23;20080;-72
2023/07/06 04:06:03;;;;;;;15.10;8.35;;;;;;;;;;2543184;23;20010;-72
2023/07/06 04:07:23;;;;;;;20.92;10.07;;;;;;;;;;2528183;23;20018;-72
2023/07/06 04:08:45;;;;;;;15.93;7.90;;;;;;;;;;2529782;23;20077;-72
2023/07/06 04:10:06;;;;;;;25.70;10.55;;;;;;;;;;2526543;23;20289;-70
2023/07/06 04:11:27;;;;;;;25.27;9.30;;;;;;;;;;2537761;23;20028;-70
2023/07/06 04:12:48;;;;;;;23.00;10.18;;;;;;;;;;2540769;23;20291;-73
2023/07/06 04:14:09;;;;;;;26.70;9.82;;;;;;;;;;2541751;23;20014;-71
2023/07/06 04:15:31;;;;;;;18.35;9.25;;;;;;;;;;2529004;23;20010;-71
2023/07/06 04:16:54;;;;;;;17.85;8.52;;;;;;;;;;2536882;23;20021;-71
2023/07/06 04:18:18;;;;;;;20.05;9.75;;;;;;;;;;2541703;23;20406;-71
2023/07/06 04:19:38;;;;;;;18.98;9.05;;;;;;;;;;2529566;23;20013;-71
2023/07/06 04:21:01;;;;;;;15.98;8.38;;;;;;;;;;2539012;23;20006;-71
2023/07/06 04:22:22;;;;;;;27.27;10.10;;;;;;;;;;2541074;23;20025;-71
2023/07/06 04:23:43;;;;;;;16.13;8.95;;;;;;;;;;2531844;23;20014;-71
2023/07/06 04:25:05;;;;;;;27.15;10.05;;;;;;;;;;2538222;23;20443;-71
2023/07/06 04:26:26;;;;;;;24.35;10.30;;;;;;;;;;2528503;23;20017;-70
2023/07/06 04:27:47;;;;;;;26.10;10.68;;;;;;;;;;2537338;23;20021;-71
2023/07/06 04:29:09;;;;;;;16.27;8.77;;;;;;;;;;2530151;23;20048;-71
2023/07/06 04:30:35;;;;;;;28.30;10.52;;;;;;;;;;2536356;23;20315;-71
2023/07/06 04:31:56;;;;;;;25.30;9.20;;;;;;;;;;2529156;23;20666;-71
2023/07/06 04:33:19;;;;;;;16.58;8.40;;;;;;;;;;2535584;23;20013;-70
2023/07/06 04:34:40;;;;;;;21.63;9.90;;;;;;;;;;2542841;23;20016;-70
2023/07/06 04:36:02;;;;;;;19.60;8.45;;;;;;;;;;2542042;23;20012;-71
2023/07/06 04:37:23;;;;;;;;;;;;;;;;;;2540896;23;20021;-70
2023/07/06 04:38:44;;;;;;;20.60;9.15;;;;;;;;;;2530937;23;19905;-71
2023/07/06 04:40:11;;;;;;;21.73;9.63;;;;;;;;;;2537039;23;20013;-71
2023/07/06 04:41:32;;;;;;;26.55;11.18;;;;;;;;;;2527225;23;20009;-71
2023/07/06 04:42:56;;;;;;;25.55;10.60;;;;;;;;;;2536024;23;20025;-70
2023/07/06 04:44:18;;;;;;;30.80;10.93;;;;;;;;;;2525988;23;20074;-69
2023/07/06 04:45:38;;;;;;;36.33;12.20;;;;;;;;;;2536417;23;20013;-70
2023/07/06 04:46:59;;;;;;;30.45;11.13;;;;;;;;;;2538760;23;20399;-70
2023/07/06 04:48:21;;;;;;;25.08;9.13;;;;;;;;;;2528297;23;20018;-70
2023/07/06 04:49:42;;;;;;;17.80;9.57;;;;;;;;;;2525569;23;20443;-71
2023/07/06 04:51:03;;;;;;;26.65;10.57;;;;;;;;;;2523926;23;20017;-71
2023/07/06 04:52:24;;;;;;;16.80;8.53;;;;;;;;;;2528525;23;20014;-71
2023/07/06 04:53:45;;;;;;;17.73;8.85;;;;;;;;;;2530989;23;20384;-70
2023/07/06 04:55:07;;;;;;;16.67;9.13;;;;;;;;;;2539707;23;20315;-70
2023/07/06 04:56:27;;;;;;;21.33;8.88;;;;;;;;;;2543229;23;20009;-70
2023/07/06 04:57:54;;;;;;;18.10;9.27;;;;;;;;;;2527742;23;20018;-70
2023/07/06 04:59:16;;;;;;;19.77;9.82;;;;;;;;;;2527675;23;20459;-70
2023/07/06 05:00:39;;;;;;;15.20;8.60;;;;;;;;;;2525114;23;20009;-70
2023/07/06 05:02:00;;;;;;;16.58;8.70;;;;;;;;;;2528004;23;20018;-71
2023/07/06 05:03:22;;;;;;;20.40;9.73;;;;;;;;;;2524281;23;20014;-70
2023/07/06 05:04:43;;;;;;;19.25;9.15;;;;;;;;;;2537246;23;20018;-70
2023/07/06 05:06:09;;;;;;;24.67;9.93;;;;;;;;;;2531900;23;20013;-70
2023/07/06 05:07:30;;;;;;;25.52;9.57;;;;;;;;;;2540375;23;20017;-71
2023/07/06 05:08:52;;;;;;;18.85;8.68;;;;;;;;;;2541184;23;20057;-70
2023/07/06 05:10:14;;;;;;;20.98;9.18;;;;;;;;;;2540787;23;20447;-70
2023/07/06 05:11:35;;;;;;;26.10;9.32;;;;;;;;;;2543415;23;20014;-70
2023/07/06 05:12:56;;;;;;;23.80;9.90;;;;;;;;;;2543070;23;20009;-69
2023/07/06 05:14:17;;;;;;;26.42;11.70;;;;;;;;;;2542285;23;20443;-71
2023/07/06 05:15:38;;;;;;;23.38;10.27;;;;;;;;;;2542597;23;20323;-69
2023/07/06 05:17:00;;;;;;;26.73;11.00;;;;;;;;;;2541836;23;20006;-71
2023/07/06 05:18:21;;;;;;;26.00;11.48;;;;;;;;;;2529186;23;20017;-71
2023/07/06 05:19:42;;;;;;;30.17;10.13;;;;;;;;;;2529066;23;20006;-71
2023/07/06 05:21:03;;;;;;;29.63;11.98;;;;;;;;;;2536711;23;20463;-70
2023/07/06 05:22:25;;;;;;;24.00;10.35;;;;;;;;;;2543411;23;20006;-71
2023/07/06 05:23:46;;;;;;;27.98;11.27;;;;;;;;;;2529084;23;20065;-70
2023/07/06 05:25:07;;;;;;;24.65;11.70;;;;;;;;;;2525016;23;20013;-70
2023/07/06 05:26:28;;;;;;;22.70;10.75;;;;;;;;;;2526662;23;20157;-71
2023/07/06 05:27:49;;;;;;;28.80;13.23;;;;;;;;;;2537113;23;20015;-70
2023/07/06 05:29:10;;;;;;;31.38;13.90;;;;;;;;;;2528360;23;20014;-70
2023/07/06 05:30:30;;;;;;;35.17;12.98;;;;;;;;;;2537977;23;20010;-71
2023/07/06 05:31:51;;;;;;;30.52;12.52;;;;;;;;;;2542670;23;20016;-71
2023/07/06 05:33:13;;;;;;;32.47;12.25;;;;;;;;;;2529262;23;20022;-70
2023/07/06 05:34:33;;;;;;;22.35;11.70;;;;;;;;;;2538175;23;20005;-70
2023/07/06 05:35:54;;;;;;;36.78;13.15;;;;;;;;;;2540434;23;20009;-70
2023/07/06 05:37:15;;;;;;;30.55;12.77;;;;;;;;;;2529054;23;20014;-70
2023/07/06 05:38:36;;;;;;;27.40;12.25;;;;;;;;;;2524793;23;20053;-70
2023/07/06 05:39:59;;;;;;;25.33;12.50;;;;;;;;;;2524450;23;20898;-71
2023/07/06 05:41:20;;;;;;;33.38;13.15;;;;;;;;;;2538447;23;20406;-70
2023/07/06 05:42:41;;;;;;;25.83;12.00;;;;;;;;;;2528305;23;20017;-70
2023/07/06 05:44:03;;;;;;;30.27;13.00;;;;;;;;;;2537631;23;20017;-70
2023/07/06 05:45:24;;;;;;;;;;;;;;;;;;2541336;23;20089;-71
2023/07/06 05:46:45;;;;;;;33.13;14.02;;;;;;;;;;2539513;23;19927;-71
2023/07/06 05:48:06;;;;;;;35.88;15.05;;;;;;;;;;2541415;23;20013;-72
2023/07/06 05:49:27;;;;;;;28.40;12.73;;;;;;;;;;2542647;23;20013;-70
2023/07/06 05:50:47;;;;;;;30.65;14.35;;;;;;;;;;2543060;23;20009;-70
2023/07/06 05:52:08;;;;;;;40.05;16.35;;;;;;;;;;2527295;23;20010;-71
2023/07/06 05:53:29;;;;;;;38.67;13.10;;;;;;;;;;2537645;23;20028;-71
2023/07/06 05:54:50;;;;;;;33.35;14.38;;;;;;;;;;2542114;23;20127;-70
2023/07/06 05:56:11;;;;;;;33.60;14.85;;;;;;;;;;2543034;23;20009;-71
2023/07/06 05:57:32;;;;;;;35.22;16.13;;;;;;;;;;2541782;23;20010;-70
2023/07/06 05:58:53;;;;;;;29.25;13.77;;;;;;;;;;2543465;23;20012;-71
2023/07/06 06:00:15;;;;;;;33.20;13.90;;;;;;;;;;2544820;23;20403;-70
2023/07/06 06:01:36;;;;;;;41.38;17.45;;;;;;;;;;2529293;23;20458;-71
2023/07/06 06:02:57;;;;;;;39.33;16.42;;;;;;;;;;2539605;23;20032;-71
2023/07/06 06:04:18;;;;;;;34.97;14.90;;;;;;;;;;2543074;23;20013;-71
2023/07/06 06:05:39;;;;;;;38.45;16.23;;;;;;;;;;2527432;23;20088;-70
2023/07/06 06:07:00;;;;;;;37.08;15.25;;;;;;;;;;2528140;23;20021;-70
2023/07/06 06:08:21;;;;;;;40.00;15.98;;;;;;;;;;2539577;23;20331;-70
2023/07/06 06:09:42;;;;;;;33.65;15.55;;;;;;;;;;2542020;23;20013;-71
2023/07/06 06:11:03;;;;;;;33.22;16.48;;;;;;;;;;2529309;23;20022;-71
2023/07/06 06:12:26;;;;;;;38.85;16.33;;;;;;;;;;2537721;23;20455;-70
2023/07/06 06:13:47;;;;;;;36.78;15.90;;;;;;;;;;2542605;23;20021;-71
2023/07/06 06:15:08;;;;;;;34.05;15.70;;;;;;;;;;2541107;23;20014;-71
2023/07/06 06:16:32;;;;;;;35.60;15.00;;;;;;;;;;2543649;23;20001;-71
2023/07/06 06:17:53;;;;;;;41.40;16.30;;;;;;;;;;2539643;23;20040;-71
2023/07/06 06:19:15;;;;;;;34.33;14.00;;;;;;;;;;2543347;23;20005;-70
2023/07/06 06:20:37;;;;;;;35.60;16.27;;;;;;;;;;2529666;23;20010;-71
2023/07/06 06:21:59;;;;;;;37.05;17.30;;;;;;;;;;2526568;23;20034;-71
2023/07/06 06:23:20;;;;;;;37.50;15.82;;;;;;;;;;2538920;23;20013;-71
2023/07/06 06:24:42;;;;;;;33.55;15.90;;;;;;;;;;2542129;23;20092;-71
2023/07/06 06:26:03;;;;;;;41.05;16.70;;;;;;;;;;2529257;23;20014;-71
2023/07/06 06:27:24;;;;;;;33.28;15.25;;;;;;;;;;2537133;23;20013;-70
2023/07/06 06:28:45;;;;;;;36.28;15.98;;;;;;;;;;2527977;23;20482;-71
2023/07/06 06:30:06;;;;;;;33.60;16.38;;;;;;;;;;2536221;23;20064;-71
2023/07/06 06:31:27;;;;;;;40.10;16.05;;;;;;;;;;2542813;23;20029;-71
2023/07/06 06:32:48;;;;;;;56.13;20.58;;;;;;;;;;2527710;23;20085;-71
2023/07/06 06:34:10;;;;;;;31.90;14.63;;;;;;;;;;2525439;23;20036;-70
2023/07/06 06:35:33;;;;;;;35.78;16.02;;;;;;;;;;2539220;23;20009;-71
2023/07/06 06:36:55;;;;;;;40.80;17.02;;;;;;;;;;2544265;23;20296;-71
2023/07/06 06:38:16;;;;;;;35.80;16.92;;;;;;;;;;2530402;23;20025;-71
2023/07/06 06:39:38;;;;;;;35.15;16.88;;;;;;;;;;2530345;23;20010;-71
2023/07/06 06:41:01;;;;;;;43.00;15.95;;;;;;;;;;2527183;23;20423;-71
2023/07/06 06:42:22;;;;;;;42.28;18.13;;;;;;;;;;2538890;23;20296;-75
2023/07/06 06:43:44;;;;;;;41.53;16.92;;;;;;;;;;2528205;23;20049;-71
2023/07/06 06:45:05;;;;;;;39.88;15.90;;;;;;;;;;2526326;23;20014;-71
2023/07/06 06:46:26;;;;;;;38.22;17.00;;;;;;;;;;2538600;23;20017;-71
2023/07/06 06:47:47;;;;;;;35.28;16.58;;;;;;;;;;2542542;23;20017;-72
2023/07/06 06:49:08;;;;;;;37.90;15.38;;;;;;;;;;2541747;23;20013;-71
2023/07/06 06:50:29;;;;;;;35.17;15.43;;;;;;;;;;2543813;23;20040;-72
2023/07/06 06:51:50;;;;;;;32.28;15.20;;;;;;;;;;2530278;23;20038;-72
2023/07/06 06:53:11;;;;;;;25.98;13.93;;;;;;;;;;2540787;23;20020;-72
2023/07/06 06:54:32;;;;;;;28.70;13.48;;;;;;;;;;2543694;23;20016;-71
2023/07/06 06:55:53;;;;;;;30.10;14.60;;;;;;;;;;2531326;23;20014;-71
2023/07/06 06:57:16;;;;;;;35.08;14.88;;;;;;;;;;2526871;23;20092;-72
2023/07/06 06:58:37;;;;;;;31.02;13.73;;;;;;;;;;2540647;23;20005;-72
2023/07/06 06:59:59;;;;;;;29.13;14.77;;;;;;;;;;2542487;23;20006;-72
2023/07/06 07:01:20;;;;;;;36.20;15.40;;;;;;;;;;2541487;23;20136;-72
2023/07/06 07:02:41;;;;;;;36.47;16.25;;;;;;;;;;2529477;23;20025;-72
2023/07/06 07:04:02;;;;;;;30.58;14.02;;;;;;;;;;2531222;23;20014;-72
2023/07/06 07:05:23;;;;;;;29.05;14.82;;;;;;;;;;2530393;23;20013;-71
2023/07/06 07:06:44;;;;;;;35.60;14.48;;;;;;;;;;2530664;23;20044;-72
2023/07/06 07:08:05;;;;;;;30.17;14.82;;;;;;;;;;2529558;23;20018;-71
2023/07/06 07:09:26;;;;;;;42.78;16.85;;;;;;;;;;2527936;23;20077;-71
2023/07/06 07:10:52;;;;;;;34.38;14.15;;;;;;;;;;2528571;23;20018;-72
2023/07/06 07:12:12;;;;;;;34.47;14.65;;;;;;;;;;2528538;23;20037;-72
2023/07/06 07:13:35;;;;;;;32.22;13.05;;;;;;;;;;2529302;23;20062;-72
2023/07/06 07:14:56;;;;;;;35.65;13.40;;;;;;;;;;2528412;23;20431;-71
2023/07/06 07:16:18;;;;;;;32.75;15.18;;;;;;;;;;2529273;23;20010;-72
2023/07/06 07:17:39;;;;;;;28.67;12.73;;;;;;;;;;2515806;23;20010;-72
2023/07/06 07:18:59;;;;;;;28.30;14.20;;;;;;;;;;2526551;23;20017;-72
2023/07/06 07:20:21;;;;;;;25.02;13.70;;;;;;;;;;2531377;23;20020;-72
2023/07/06 07:21:41;;;;;;;28.27;14.10;;;;;;;;;;2528867;23;20411;-71
2023/07/06 07:23:02;;;;;;;25.33;14.00;;;;;;;;;;2517487;23;20086;-72
2023/07/06 07:24:23;;;;;;;27.08;13.43;;;;;;;;;;2526627;23;20010;-71
2023/07/06 07:25:44;;;;;;;19.98;13.13;;;;;;;;;;2532494;23;20014;-72
2023/07/06 07:27:05;;;;;;;26.10;13.90;;;;;;;;;;2520492;23;20393;-71
2023/07/06 07:28:27;;;;;;;30.13;13.77;;;;;;;;;;2525355;23;20017;-72
2023/07/06 07:29:47;;;;;;;24.98;13.25;;;;;;;;;;2531653;23;20009;-72
2023/07/06 07:31:12;;;;;;;22.10;13.40;;;;;;;;;;2532227;23;20014;-71
2023/07/06 07:32:33;;;;;;;29.77;12.68;;;;;;;;;;2519127;23;20070;-72
2023/07/06 07:33:54;;;;;;;23.58;13.07;;;;;;;;;;2527196;23;20066;-72
2023/07/06 07:35:15;;;;;;;28.98;15.20;;;;;;;;;;2518289;23;20018;-71
2023/07/06 07:36:37;;;;;;;24.88;13.70;;;;;;;;;;2528095;23;20010;-72
2023/07/06 07:37:57;;;;;;;25.95;13.48;;;;;;;;;;2530745;23;20320;-71
2023/07/06 07:39:18;;;;;;;26.33;13.40;;;;;;;;;;2529916;23;20014;-72
2023/07/06 07:40:39;;;;;;;34.08;15.18;;;;;;;;;;2530851;23;20010;-72
2023/07/06 07:42:02;;;;;;;25.13;13.73;;;;;;;;;;2529808;23;20451;-72
2023/07/06 07:43:25;;;;;;;33.83;14.63;;;;;;;;;;2531635;23;20077;-71
2023/07/06 07:44:46;;;;;;;33.45;15.25;;;;;;;;;;2515580;23;20448;-71
2023/07/06 07:46:09;;;;;;;32.50;15.80;;;;;;;;;;2526239;23;20487;-71
2023/07/06 07:47:30;;;;;;;28.40;13.88;;;;;;;;;;2528807;23;20033;-71
2023/07/06 07:48:51;;;;;;;31.25;14.70;;;;;;;;;;2531098;23;20490;-71
2023/07/06 07:50:12;;;;;;;24.05;13.98;;;;;;;;;;2531149;23;20045;-71
2023/07/06 07:51:32;;;;;;;30.05;15.70;;;;;;;;;;2515722;23;20007;-71
2023/07/06 07:52:53;;;;;;;27.83;14.60;;;;;;;;;;2524779;23;20014;-72
2023/07/06 07:54:14;;;;;;;30.38;14.25;;;;;;;;;;2515661;23;20073;-71
2023/07/06 07:55:35;;;;;;;31.85;14.77;;;;;;;;;;2525304;23;20010;-71
2023/07/06 07:56:56;;;;;;;30.10;14.48;;;;;;;;;;2529016;23;20006;-71
2023/07/06 07:58:17;;;;;;;23.35;14.18;;;;;;;;;;2530054;23;20018;-71
2023/07/06 07:59:38;;;;;;;27.98;13.80;;;;;;;;;;2516688;23;20240;-71
2023/07/06 08:01:00;;;;;;;28.15;13.57;;;;;;;;;;2525683;23;20030;-71
2023/07/06 08:02:21;;;;;;;24.63;12.35;;;;;;;;;;2529304;23;20022;-72
2023/07/06 08:03:42;;;;;;;32.90;13.30;;;;;;;;;;2530426;23;20014;-72
2023/07/06 08:05:04;;;;;;;22.92;11.50;;;;;;;;;;2527064;23;20043;-72
2023/07/06 08:06:25;;;;;;;26.27;12.77;;;;;;;;;;2516883;23;20022;-72
2023/07/06 08:07:46;;;;;;;27.38;13.57;;;;;;;;;;2524664;23;20018;-71
2023/07/06 08:09:08;;;;;;;22.88;12.57;;;;;;;;;;2519018;23;20011;-71
2023/07/06 08:10:30;;;;;;;25.20;13.30;;;;;;;;;;2512678;23;20019;-71
2023/07/06 08:11:51;;;;;;;21.02;12.85;;;;;;;;;;2513269;23;20179;-72
2023/07/06 08:13:12;;;;;;;22.60;12.05;;;;;;;;;;2525827;23;20033;-72
2023/07/06 08:14:34;;;;;;;26.10;13.55;;;;;;;;;;2519596;23;20324;-71
2023/07/06 08:15:55;;;;;;;25.95;12.70;;;;;;;;;;2527862;23;20013;-71
2023/07/06 08:17:17;;;;;;;25.08;12.00;;;;;;;;;;2531987;23;20036;-72
2023/07/06 08:18:38;;;;;;;22.85;12.95;;;;;;;;;;2517053;23;20014;-72
2023/07/06 08:19:59;;;;;;;21.25;11.95;;;;;;;;;;2525001;23;20017;-72
2023/07/06 08:21:21;;;;;;;22.58;12.43;;;;;;;;;;2517842;23;20097;-71
2023/07/06 08:22:42;;;;;;;21.52;12.40;;;;;;;;;;2529088;23;20006;-72
2023/07/06 08:24:03;;;;;;;28.38;14.57;;;;;;;;;;2530962;23;20010;-72
2023/07/06 08:25:28;;;;;;;24.83;12.95;;;;;;;;;;2532323;23;20357;-71
2023/07/06 08:26:49;;;;;;;23.83;12.73;;;;;;;;;;2518079;23;20022;-71
2023/07/06 08:28:12;;;;;;;27.13;14.37;;;;;;;;;;2525720;23;20018;-72
2023/07/06 08:29:33;;;;;;;23.05;13.93;;;;;;;;;;2531114;23;20422;-71
2023/07/06 08:30:53;;;;;;;20.80;13.50;;;;;;;;;;2519053;23;20097;-71
2023/07/06 08:32:18;;;;;;;24.25;14.05;;;;;;;;;;2514744;23;20015;-72
2023/07/06 08:33:39;;;;;;;21.00;12.77;;;;;;;;;;2529907;23;20013;-72
2023/07/06 08:35:01;;;;;;;28.33;14.25;;;;;;;;;;2518748;23;20006;-72
2023/07/06 08:36:22;;;;;;;21.95;13.30;;;;;;;;;;2528395;23;20015;-72
2023/07/06 08:37:46;;;;;;;22.85;14.10;;;;;;;;;;2530724;23;20329;-72
2023/07/06 08:39:08;;;;;;;29.90;13.95;;;;;;;;;;2517345;23;20022;-73
2023/07/06 08:40:30;;;;;;;25.25;12.52;;;;;;;;;;2528775;23;20010;-72
2023/07/06 08:41:52;;;;;;;26.02;13.43;;;;;;;;;;2530085;23;20006;-72
2023/07/06 08:43:19;;;;;;;29.83;12.80;;;;;;;;;;2531054;23;20223;-72
2023/07/06 08:44:44;;;;;;;25.52;13.65;;;;;;;;;;2517860;23;20085;-72
2023/07/06 08:46:06;;;;;;;27.63;12.85;;;;;;;;;;2514625;23;20393;-72
2023/07/06 08:47:28;;;;;;;24.75;12.73;;;;;;;;;;2527787;23;20436;-72
2023/07/06 08:48:53;;;;;;;22.70;13.23;;;;;;;;;;2529844;23;20466;-71
2023/07/06 08:50:16;;;;;;;21.40;11.50;;;;;;;;;;2517171;23;20011;-71
2023/07/06 08:51:38;;;;;;;20.40;12.60;;;;;;;;;;2514555;23;20007;-71
2023/07/06 08:53:00;;;;;;;22.17;12.87;;;;;;;;;;2526668;23;20104;-72
2023/07/06 08:54:22;;;;;;;21.25;11.70;;;;;;;;;;2530817;23;20389;-72
2023/07/06 08:55:43;;;;;;;;;;;;;;;;;;2529901;23;20005;-72
2023/07/06 08:57:15;;;;;;;22.13;12.23;;;;;;;;;;2531723;23;20239;-72
2023/07/06 08:58:41;;;;;;;24.88;12.43;;;;;;;;;;2530430;23;20096;-72
2023/07/06 09:00:03;;;;;;;23.40;12.82;;;;;;;;;;2529979;23;20006;-72
2023/07/06 09:01:24;;;;;;;19.77;11.50;;;;;;;;;;2531839;23;19994;-72
2023/07/06 09:02:48;;;;;;;22.25;12.18;;;;;;;;;;2532068;23;20022;-72
2023/07/06 09:04:14;;;;;;;18.75;11.45;;;;;;;;;;2531066;23;20089;-73